Blue Hill Falls, Maine
Current Conditions -  °F | °C
As of 11:35 PM on Sunday 25 Jan 2015 (Local Time) from KBHB Reporting Station
Clear Clear  
Wind Chill: -4°   Ceiling: Unl
Heat Index:   Visibility: 10mi
Dew Point:   Wind: 8mph
Humidity: 67%   Direction: 320°NW
Pressure: 29.97"   Gusts: NA
Location:  44.38°N, 68.57°W
Report Text: KBHB 260435Z 32007KT 10SM CLR M13/M18 A2997 RMK AO1
Loading
Personal Weather Stations






























Interactive Weather Map New forecast layout! Learn more

10-Day Weather Forecast

Advertisements
Track Severe Weather on mobile